Terminal Aerodrome Forecast
Issued by NWS

Home | Current Version | Previous Version | Text Only | Print | Product List | Glossary On
Versions: 1 2 3 4 5 6 7 8 9 10 11 12 13 14 15
000
FTUS45 KRIW 291700
TAFBPI
TAF
KBPI 291720Z 2918/3018 VRB06KT P6SM SKC
     FM292100 28011KT P6SM SCT250
     FM300200 30006KT P6SM FEW200=

USA.gov is the U.S. government's official web portal to all federal, state and local government web resources and services.